sensor_id;sensor_type;location;lat;lon;timestamp;P1;durP1;ratioP1;P2;durP2;ratioP2
13114;SDS011;6623;52.120;8.660;2023-04-06T00:01:40;7.73;;;5.53;;
13114;SDS011;6623;52.120;8.660;2023-04-06T00:04:06;6.23;;;5.13;;
13114;SDS011;6623;52.120;8.660;2023-04-06T00:06:31;6.50;;;5.40;;
13114;SDS011;6623;52.120;8.660;2023-04-06T00:08:58;8.87;;;6.03;;
13114;SDS011;6623;52.120;8.660;2023-04-06T00:11:24;6.57;;;5.40;;
13114;SDS011;6623;52.120;8.660;2023-04-06T00:13:50;10.00;;;5.93;;
13114;SDS011;6623;52.120;8.660;2023-04-06T00:16:15;7.57;;;5.57;;
13114;SDS011;6623;52.120;8.660;2023-04-06T00:18:41;7.77;;;5.67;;
13114;SDS011;6623;52.120;8.660;2023-04-06T00:21:06;7.80;;;5.60;;
13114;SDS011;6623;52.120;8.660;2023-04-06T00:23:32;8.33;;;5.37;;
13114;SDS011;6623;52.120;8.660;2023-04-06T00:25:57;6.33;;;5.00;;
13114;SDS011;6623;52.120;8.660;2023-04-06T00:28:23;6.43;;;5.40;;
13114;SDS011;6623;52.120;8.660;2023-04-06T00:30:51;7.33;;;5.30;;
13114;SDS011;6623;52.120;8.660;2023-04-06T00:33:18;10.40;;;5.63;;
13114;SDS011;6623;52.120;8.660;2023-04-06T00:35:44;7.10;;;5.50;;
13114;SDS011;6623;52.120;8.660;2023-04-06T00:38:10;7.07;;;5.30;;
13114;SDS011;6623;52.120;8.660;2023-04-06T00:40:35;8.37;;;5.10;;
13114;SDS011;6623;52.120;8.660;2023-04-06T00:43:01;7.67;;;5.63;;
13114;SDS011;6623;52.120;8.660;2023-04-06T00:45:26;9.43;;;5.43;;
13114;SDS011;6623;52.120;8.660;2023-04-06T00:47:52;9.57;;;5.47;;
13114;SDS011;6623;52.120;8.660;2023-04-06T00:50:18;5.90;;;4.97;;
13114;SDS011;6623;52.120;8.660;2023-04-06T00:52:44;8.57;;;5.60;;
13114;SDS011;6623;52.120;8.660;2023-04-06T00:55:10;6.27;;;5.33;;
13114;SDS011;6623;52.120;8.660;2023-04-06T00:57:35;6.13;;;5.40;;
13114;SDS011;6623;52.120;8.660;2023-04-06T01:00:01;6.07;;;4.97;;
13114;SDS011;6623;52.120;8.660;2023-04-06T01:02:27;6.80;;;4.73;;
13114;SDS011;6623;52.120;8.660;2023-04-06T01:04:53;5.63;;;5.10;;
13114;SDS011;6623;52.120;8.660;2023-04-06T01:07:19;6.17;;;5.13;;
13114;SDS011;6623;52.120;8.660;2023-04-06T01:09:45;6.07;;;4.80;;
13114;SDS011;6623;52.120;8.660;2023-04-06T01:12:10;7.00;;;5.70;;
13114;SDS011;6623;52.120;8.660;2023-04-06T01:14:36;6.23;;;5.10;;
13114;SDS011;6623;52.120;8.660;2023-04-06T01:17:01;6.97;;;4.63;;
13114;SDS011;6623;52.120;8.660;2023-04-06T01:19:27;5.23;;;4.70;;
13114;SDS011;6623;52.120;8.660;2023-04-06T01:21:53;5.17;;;4.53;;
13114;SDS011;6623;52.120;8.660;2023-04-06T01:24:18;5.30;;;4.80;;
13114;SDS011;6623;52.120;8.660;2023-04-06T01:26:44;5.30;;;4.57;;
13114;SDS011;6623;52.120;8.660;2023-04-06T01:29:10;5.77;;;4.80;;
13114;SDS011;6623;52.120;8.660;2023-04-06T01:31:36;5.00;;;4.37;;
13114;SDS011;6623;52.120;8.660;2023-04-06T01:34:02;6.33;;;4.33;;
13114;SDS011;6623;52.120;8.660;2023-04-06T01:36:27;5.10;;;4.60;;
13114;SDS011;6623;52.120;8.660;2023-04-06T01:38:53;5.63;;;4.60;;
13114;SDS011;6623;52.120;8.660;2023-04-06T01:41:18;4.53;;;4.13;;
13114;SDS011;6623;52.120;8.660;2023-04-06T01:43:45;5.33;;;3.90;;
13114;SDS011;6623;52.120;8.660;2023-04-06T01:46:12;5.77;;;4.27;;
13114;SDS011;6623;52.120;8.660;2023-04-06T01:48:37;5.10;;;4.23;;
13114;SDS011;6623;52.120;8.660;2023-04-06T01:51:03;4.60;;;4.10;;
13114;SDS011;6623;52.120;8.660;2023-04-06T01:53:28;5.40;;;4.40;;
13114;SDS011;6623;52.120;8.660;2023-04-06T01:55:54;5.97;;;4.80;;
13114;SDS011;6623;52.120;8.660;2023-04-06T01:58:20;5.77;;;4.53;;
13114;SDS011;6623;52.120;8.660;2023-04-06T02:00:45;5.73;;;4.30;;
13114;SDS011;6623;52.120;8.660;2023-04-06T02:03:11;6.00;;;4.00;;
13114;SDS011;6623;52.120;8.660;2023-04-06T02:05:36;5.87;;;4.20;;
13114;SDS011;6623;52.120;8.660;2023-04-06T02:08:06;6.50;;;4.47;;
13114;SDS011;6623;52.120;8.660;2023-04-06T02:10:32;5.00;;;4.17;;
13114;SDS011;6623;52.120;8.660;2023-04-06T02:12:58;5.03;;;4.10;;
13114;SDS011;6623;52.120;8.660;2023-04-06T02:15:27;4.63;;;3.73;;
13114;SDS011;6623;52.120;8.660;2023-04-06T02:17:53;4.33;;;3.93;;
13114;SDS011;6623;52.120;8.660;2023-04-06T02:20:18;4.93;;;4.17;;
13114;SDS011;6623;52.120;8.660;2023-04-06T02:22:44;5.07;;;3.90;;
13114;SDS011;6623;52.120;8.660;2023-04-06T02:25:10;5.27;;;4.03;;
13114;SDS011;6623;52.120;8.660;2023-04-06T02:27:36;5.07;;;3.93;;
13114;SDS011;6623;52.120;8.660;2023-04-06T02:30:04;5.57;;;4.10;;
13114;SDS011;6623;52.120;8.660;2023-04-06T02:32:30;5.57;;;4.07;;
13114;SDS011;6623;52.120;8.660;2023-04-06T02:34:56;4.10;;;3.63;;
13114;SDS011;6623;52.120;8.660;2023-04-06T02:37:21;5.33;;;4.37;;
13114;SDS011;6623;52.120;8.660;2023-04-06T02:39:48;6.97;;;4.47;;
13114;SDS011;6623;52.120;8.660;2023-04-06T02:42:14;5.67;;;3.77;;
13114;SDS011;6623;52.120;8.660;2023-04-06T02:44:40;5.70;;;4.00;;
13114;SDS011;6623;52.120;8.660;2023-04-06T02:47:06;4.80;;;3.83;;
13114;SDS011;6623;52.120;8.660;2023-04-06T02:49:32;5.63;;;3.80;;
13114;SDS011;6623;52.120;8.660;2023-04-06T02:51:57;5.73;;;4.33;;
13114;SDS011;6623;52.120;8.660;2023-04-06T02:54:23;5.37;;;4.17;;
13114;SDS011;6623;52.120;8.660;2023-04-06T02:56:48;5.90;;;4.17;;
13114;SDS011;6623;52.120;8.660;2023-04-06T02:59:14;4.80;;;4.37;;
13114;SDS011;6623;52.120;8.660;2023-04-06T03:01:39;6.17;;;4.27;;
13114;SDS011;6623;52.120;8.660;2023-04-06T03:04:05;5.00;;;4.33;;
13114;SDS011;6623;52.120;8.660;2023-04-06T03:06:30;5.57;;;4.20;;
13114;SDS011;6623;52.120;8.660;2023-04-06T03:08:56;5.90;;;3.90;;
13114;SDS011;6623;52.120;8.660;2023-04-06T03:11:22;5.00;;;4.10;;
13114;SDS011;6623;52.120;8.660;2023-04-06T03:13:47;5.50;;;4.20;;
13114;SDS011;6623;52.120;8.660;2023-04-06T03:16:13;5.83;;;3.90;;
13114;SDS011;6623;52.120;8.660;2023-04-06T03:18:38;5.37;;;3.87;;
13114;SDS011;6623;52.120;8.660;2023-04-06T03:21:04;4.90;;;4.10;;
13114;SDS011;6623;52.120;8.660;2023-04-06T03:23:30;4.93;;;4.20;;
13114;SDS011;6623;52.120;8.660;2023-04-06T03:25:55;5.03;;;4.00;;
13114;SDS011;6623;52.120;8.660;2023-04-06T03:28:21;4.73;;;4.20;;
13114;SDS011;6623;52.120;8.660;2023-04-06T03:30:46;6.90;;;4.00;;
13114;SDS011;6623;52.120;8.660;2023-04-06T03:33:12;4.97;;;4.30;;
13114;SDS011;6623;52.120;8.660;2023-04-06T03:35:37;4.53;;;3.93;;
13114;SDS011;6623;52.120;8.660;2023-04-06T03:38:03;5.13;;;4.00;;
13114;SDS011;6623;52.120;8.660;2023-04-06T03:40:30;4.90;;;4.40;;
13114;SDS011;6623;52.120;8.660;2023-04-06T03:42:56;4.73;;;4.07;;
13114;SDS011;6623;52.120;8.660;2023-04-06T03:45:21;4.70;;;4.30;;
13114;SDS011;6623;52.120;8.660;2023-04-06T03:47:47;5.27;;;4.47;;
13114;SDS011;6623;52.120;8.660;2023-04-06T03:50:13;5.70;;;4.60;;
13114;SDS011;6623;52.120;8.660;2023-04-06T03:52:38;5.93;;;4.20;;
13114;SDS011;6623;52.120;8.660;2023-04-06T03:55:04;5.57;;;4.40;;
13114;SDS011;6623;52.120;8.660;2023-04-06T03:57:30;6.13;;;4.80;;
13114;SDS011;6623;52.120;8.660;2023-04-06T03:59:55;6.03;;;4.63;;
13114;SDS011;6623;52.120;8.660;2023-04-06T04:02:24;5.83;;;4.60;;
13114;SDS011;6623;52.120;8.660;2023-04-06T04:04:49;7.30;;;4.70;;
13114;SDS011;6623;52.120;8.660;2023-04-06T04:07:15;5.13;;;4.57;;
13114;SDS011;6623;52.120;8.660;2023-04-06T04:09:40;5.73;;;4.57;;
13114;SDS011;6623;52.120;8.660;2023-04-06T04:12:06;4.67;;;4.10;;
13114;SDS011;6623;52.120;8.660;2023-04-06T04:14:31;5.70;;;4.23;;
13114;SDS011;6623;52.120;8.660;2023-04-06T04:16:57;5.60;;;4.53;;
13114;SDS011;6623;52.120;8.660;2023-04-06T04:19:22;7.73;;;4.37;;
13114;SDS011;6623;52.120;8.660;2023-04-06T04:21:48;5.10;;;4.40;;
13114;SDS011;6623;52.120;8.660;2023-04-06T04:24:14;5.10;;;4.57;;
13114;SDS011;6623;52.120;8.660;2023-04-06T04:26:39;5.60;;;4.53;;
13114;SDS011;6623;52.120;8.660;2023-04-06T04:29:05;5.30;;;4.60;;
13114;SDS011;6623;52.120;8.660;2023-04-06T04:31:31;6.77;;;4.97;;
13114;SDS011;6623;52.120;8.660;2023-04-06T04:33:57;5.27;;;4.47;;
13114;SDS011;6623;52.120;8.660;2023-04-06T04:36:24;6.43;;;5.10;;
13114;SDS011;6623;52.120;8.660;2023-04-06T04:38:50;6.93;;;4.90;;
13114;SDS011;6623;52.120;8.660;2023-04-06T04:41:16;5.10;;;4.50;;
13114;SDS011;6623;52.120;8.660;2023-04-06T04:43:42;5.93;;;4.90;;
13114;SDS011;6623;52.120;8.660;2023-04-06T04:46:07;7.43;;;4.97;;
13114;SDS011;6623;52.120;8.660;2023-04-06T04:48:33;7.10;;;5.13;;
13114;SDS011;6623;52.120;8.660;2023-04-06T04:50:58;8.67;;;5.37;;
13114;SDS011;6623;52.120;8.660;2023-04-06T04:53:24;5.10;;;4.60;;
13114;SDS011;6623;52.120;8.660;2023-04-06T04:55:49;6.83;;;5.20;;
13114;SDS011;6623;52.120;8.660;2023-04-06T04:58:16;7.80;;;5.90;;
13114;SDS011;6623;52.120;8.660;2023-04-06T05:00:43;5.63;;;5.00;;
13114;SDS011;6623;52.120;8.660;2023-04-06T05:03:09;5.70;;;4.50;;
13114;SDS011;6623;52.120;8.660;2023-04-06T05:05:42;5.17;;;4.67;;
13114;SDS011;6623;52.120;8.660;2023-04-06T05:08:08;7.27;;;4.87;;
13114;SDS011;6623;52.120;8.660;2023-04-06T05:10:34;5.73;;;5.10;;
13114;SDS011;6623;52.120;8.660;2023-04-06T05:13:00;7.03;;;5.57;;
13114;SDS011;6623;52.120;8.660;2023-04-06T05:15:25;6.83;;;4.80;;
13114;SDS011;6623;52.120;8.660;2023-04-06T05:17:51;5.43;;;4.87;;
13114;SDS011;6623;52.120;8.660;2023-04-06T05:20:16;7.07;;;4.87;;
13114;SDS011;6623;52.120;8.660;2023-04-06T05:22:42;5.20;;;4.67;;
13114;SDS011;6623;52.120;8.660;2023-04-06T05:25:08;6.17;;;4.60;;
13114;SDS011;6623;52.120;8.660;2023-04-06T05:27:33;6.67;;;5.10;;
13114;SDS011;6623;52.120;8.660;2023-04-06T05:29:59;7.40;;;4.93;;
13114;SDS011;6623;52.120;8.660;2023-04-06T05:32:25;4.97;;;4.50;;
13114;SDS011;6623;52.120;8.660;2023-04-06T05:34:51;6.60;;;5.10;;
13114;SDS011;6623;52.120;8.660;2023-04-06T05:37:17;5.47;;;4.67;;
13114;SDS011;6623;52.120;8.660;2023-04-06T05:39:42;5.87;;;4.77;;
13114;SDS011;6623;52.120;8.660;2023-04-06T05:42:08;8.60;;;5.57;;
13114;SDS011;6623;52.120;8.660;2023-04-06T05:44:33;6.63;;;4.83;;
13114;SDS011;6623;52.120;8.660;2023-04-06T05:47:00;7.37;;;4.97;;
13114;SDS011;6623;52.120;8.660;2023-04-06T05:49:25;6.57;;;5.30;;
13114;SDS011;6623;52.120;8.660;2023-04-06T05:51:51;5.53;;;4.30;;
13114;SDS011;6623;52.120;8.660;2023-04-06T05:54:16;5.27;;;4.70;;
13114;SDS011;6623;52.120;8.660;2023-04-06T05:56:42;5.67;;;4.97;;
13114;SDS011;6623;52.120;8.660;2023-04-06T05:59:07;6.10;;;5.00;;
13114;SDS011;6623;52.120;8.660;2023-04-06T06:01:33;6.63;;;4.77;;
13114;SDS011;6623;52.120;8.660;2023-04-06T06:04:00;6.10;;;4.60;;
13114;SDS011;6623;52.120;8.660;2023-04-06T06:06:27;5.53;;;4.27;;
13114;SDS011;6623;52.120;8.660;2023-04-06T06:08:53;5.50;;;4.90;;
13114;SDS011;6623;52.120;8.660;2023-04-06T06:11:19;4.83;;;4.23;;
13114;SDS011;6623;52.120;8.660;2023-04-06T06:13:44;7.43;;;4.70;;
13114;SDS011;6623;52.120;8.660;2023-04-06T06:16:10;5.40;;;4.13;;
13114;SDS011;6623;52.120;8.660;2023-04-06T06:18:35;5.17;;;4.67;;
13114;SDS011;6623;52.120;8.660;2023-04-06T06:21:01;5.70;;;4.27;;
13114;SDS011;6623;52.120;8.660;2023-04-06T06:23:27;5.53;;;4.37;;
13114;SDS011;6623;52.120;8.660;2023-04-06T06:25:53;6.03;;;4.60;;
13114;SDS011;6623;52.120;8.660;2023-04-06T06:28:18;6.27;;;4.60;;
13114;SDS011;6623;52.120;8.660;2023-04-06T06:30:44;5.80;;;4.60;;
13114;SDS011;6623;52.120;8.660;2023-04-06T06:33:10;5.17;;;4.63;;
13114;SDS011;6623;52.120;8.660;2023-04-06T06:35:35;7.23;;;4.83;;
13114;SDS011;6623;52.120;8.660;2023-04-06T06:38:01;6.63;;;4.57;;
13114;SDS011;6623;52.120;8.660;2023-04-06T06:40:26;6.20;;;4.50;;
13114;SDS011;6623;52.120;8.660;2023-04-06T06:42:52;5.83;;;4.80;;
13114;SDS011;6623;52.120;8.660;2023-04-06T06:45:18;4.90;;;4.40;;
13114;SDS011;6623;52.120;8.660;2023-04-06T06:47:44;6.70;;;4.60;;
13114;SDS011;6623;52.120;8.660;2023-04-06T06:50:10;11.00;;;4.80;;
13114;SDS011;6623;52.120;8.660;2023-04-06T06:52:36;7.17;;;4.80;;
13114;SDS011;6623;52.120;8.660;2023-04-06T06:55:01;5.07;;;4.40;;
13114;SDS011;6623;52.120;8.660;2023-04-06T06:57:27;6.80;;;4.70;;
13114;SDS011;6623;52.120;8.660;2023-04-06T06:59:53;5.57;;;4.40;;
13114;SDS011;6623;52.120;8.660;2023-04-06T07:02:18;5.20;;;4.70;;
13114;SDS011;6623;52.120;8.660;2023-04-06T07:04:47;6.50;;;5.00;;
13114;SDS011;6623;52.120;8.660;2023-04-06T07:07:13;5.20;;;4.50;;
13114;SDS011;6623;52.120;8.660;2023-04-06T07:09:38;5.47;;;4.50;;
13114;SDS011;6623;52.120;8.660;2023-04-06T07:12:04;5.83;;;4.80;;
13114;SDS011;6623;52.120;8.660;2023-04-06T07:14:30;6.23;;;4.70;;
13114;SDS011;6623;52.120;8.660;2023-04-06T07:16:55;6.87;;;5.53;;
13114;SDS011;6623;52.120;8.660;2023-04-06T07:19:21;7.30;;;5.43;;
13114;SDS011;6623;52.120;8.660;2023-04-06T07:21:46;7.17;;;5.10;;
13114;SDS011;6623;52.120;8.660;2023-04-06T07:24:14;6.23;;;4.60;;
13114;SDS011;6623;52.120;8.660;2023-04-06T07:26:39;5.60;;;4.67;;
13114;SDS011;6623;52.120;8.660;2023-04-06T07:29:05;6.97;;;4.83;;
13114;SDS011;6623;52.120;8.660;2023-04-06T07:31:30;5.50;;;4.83;;
13114;SDS011;6623;52.120;8.660;2023-04-06T07:33:56;6.60;;;4.80;;
13114;SDS011;6623;52.120;8.660;2023-04-06T07:36:21;7.40;;;4.73;;
13114;SDS011;6623;52.120;8.660;2023-04-06T07:38:47;5.63;;;4.60;;
13114;SDS011;6623;52.120;8.660;2023-04-06T07:41:13;5.70;;;5.07;;
13114;SDS011;6623;52.120;8.660;2023-04-06T07:43:42;8.57;;;4.63;;
13114;SDS011;6623;52.120;8.660;2023-04-06T07:46:08;10.47;;;5.20;;
13114;SDS011;6623;52.120;8.660;2023-04-06T07:48:33;5.03;;;4.47;;
13114;SDS011;6623;52.120;8.660;2023-04-06T07:51:02;6.93;;;4.50;;
13114;SDS011;6623;52.120;8.660;2023-04-06T07:53:32;4.87;;;4.47;;
13114;SDS011;6623;52.120;8.660;2023-04-06T07:55:58;6.43;;;5.40;;
13114;SDS011;6623;52.120;8.660;2023-04-06T07:58:24;6.03;;;4.67;;
13114;SDS011;6623;52.120;8.660;2023-04-06T08:00:49;5.27;;;4.73;;
13114;SDS011;6623;52.120;8.660;2023-04-06T08:03:15;6.13;;;4.97;;
13114;SDS011;6623;52.120;8.660;2023-04-06T08:05:41;6.03;;;4.83;;
13114;SDS011;6623;52.120;8.660;2023-04-06T08:08:07;6.23;;;4.90;;
13114;SDS011;6623;52.120;8.660;2023-04-06T08:10:33;8.40;;;4.60;;
13114;SDS011;6623;52.120;8.660;2023-04-06T08:12:59;6.80;;;5.20;;
13114;SDS011;6623;52.120;8.660;2023-04-06T08:15:25;8.63;;;4.63;;
13114;SDS011;6623;52.120;8.660;2023-04-06T08:17:51;5.43;;;4.80;;
13114;SDS011;6623;52.120;8.660;2023-04-06T08:20:16;6.30;;;4.97;;
13114;SDS011;6623;52.120;8.660;2023-04-06T08:22:42;5.73;;;4.50;;
13114;SDS011;6623;52.120;8.660;2023-04-06T08:25:07;6.23;;;4.77;;
13114;SDS011;6623;52.120;8.660;2023-04-06T08:27:33;7.97;;;4.70;;
13114;SDS011;6623;52.120;8.660;2023-04-06T08:29:58;5.53;;;4.80;;
13114;SDS011;6623;52.120;8.660;2023-04-06T08:32:24;5.73;;;4.83;;
13114;SDS011;6623;52.120;8.660;2023-04-06T08:34:53;6.70;;;5.10;;
13114;SDS011;6623;52.120;8.660;2023-04-06T08:37:19;6.83;;;4.90;;
13114;SDS011;6623;52.120;8.660;2023-04-06T08:39:44;5.87;;;4.93;;
13114;SDS011;6623;52.120;8.660;2023-04-06T08:42:12;6.77;;;4.70;;
13114;SDS011;6623;52.120;8.660;2023-04-06T08:44:41;8.33;;;4.90;;
13114;SDS011;6623;52.120;8.660;2023-04-06T08:47:07;6.40;;;4.93;;
13114;SDS011;6623;52.120;8.660;2023-04-06T08:49:33;6.60;;;4.77;;
13114;SDS011;6623;52.120;8.660;2023-04-06T08:52:02;7.53;;;5.30;;
13114;SDS011;6623;52.120;8.660;2023-04-06T08:54:28;6.77;;;5.03;;
13114;SDS011;6623;52.120;8.660;2023-04-06T08:56:53;7.53;;;4.60;;
13114;SDS011;6623;52.120;8.660;2023-04-06T08:59:21;6.43;;;4.77;;
13114;SDS011;6623;52.120;8.660;2023-04-06T09:01:48;7.37;;;4.60;;
13114;SDS011;6623;52.120;8.660;2023-04-06T09:04:14;5.63;;;4.30;;
13114;SDS011;6623;52.120;8.660;2023-04-06T09:06:40;8.10;;;4.73;;
13114;SDS011;6623;52.120;8.660;2023-04-06T09:09:06;6.23;;;4.60;;
13114;SDS011;6623;52.120;8.660;2023-04-06T09:11:50;7.03;;;4.80;;
13114;SDS011;6623;52.120;8.660;2023-04-06T09:14:39;5.60;;;4.60;;
13114;SDS011;6623;52.120;8.660;2023-04-06T09:17:05;6.13;;;4.80;;
13114;SDS011;6623;52.120;8.660;2023-04-06T09:19:31;7.17;;;4.70;;
13114;SDS011;6623;52.120;8.660;2023-04-06T09:22:03;6.43;;;4.90;;
13114;SDS011;6623;52.120;8.660;2023-04-06T09:24:51;6.60;;;4.93;;
13114;SDS011;6623;52.120;8.660;2023-04-06T09:27:16;7.57;;;4.77;;
13114;SDS011;6623;52.120;8.660;2023-04-06T09:29:43;8.30;;;5.03;;
13114;SDS011;6623;52.120;8.660;2023-04-06T09:32:09;6.63;;;4.67;;
13114;SDS011;6623;52.120;8.660;2023-04-06T09:34:37;6.53;;;5.13;;
13114;SDS011;6623;52.120;8.660;2023-04-06T09:37:15;6.73;;;4.70;;
13114;SDS011;6623;52.120;8.660;2023-04-06T09:39:41;6.50;;;4.90;;
13114;SDS011;6623;52.120;8.660;2023-04-06T09:42:07;6.80;;;4.77;;
13114;SDS011;6623;52.120;8.660;2023-04-06T09:44:33;6.97;;;4.27;;
13114;SDS011;6623;52.120;8.660;2023-04-06T09:46:58;5.90;;;4.57;;
13114;SDS011;6623;52.120;8.660;2023-04-06T09:49:26;6.27;;;4.60;;
13114;SDS011;6623;52.120;8.660;2023-04-06T09:51:54;8.03;;;4.93;;
13114;SDS011;6623;52.120;8.660;2023-04-06T09:54:22;6.27;;;5.17;;
13114;SDS011;6623;52.120;8.660;2023-04-06T09:59:50;9.60;;;5.07;;
13114;SDS011;6623;52.120;8.660;2023-04-06T10:05:09;5.63;;;5.10;;
13114;SDS011;6623;52.120;8.660;2023-04-06T10:07:41;6.47;;;4.93;;
13114;SDS011;6623;52.120;8.660;2023-04-06T10:10:07;7.13;;;5.17;;
13114;SDS011;6623;52.120;8.660;2023-04-06T10:12:34;7.30;;;5.07;;
13114;SDS011;6623;52.120;8.660;2023-04-06T10:15:03;8.20;;;5.27;;
13114;SDS011;6623;52.120;8.660;2023-04-06T10:17:28;7.13;;;5.40;;
13114;SDS011;6623;52.120;8.660;2023-04-06T10:20:16;6.97;;;5.23;;
13114;SDS011;6623;52.120;8.660;2023-04-06T10:22:51;7.83;;;5.30;;
13114;SDS011;6623;52.120;8.660;2023-04-06T10:25:28;8.10;;;5.23;;
13114;SDS011;6623;52.120;8.660;2023-04-06T10:28:13;7.37;;;5.63;;
13114;SDS011;6623;52.120;8.660;2023-04-06T10:30:42;8.27;;;5.57;;
13114;SDS011;6623;52.120;8.660;2023-04-06T10:33:19;7.20;;;5.20;;
13114;SDS011;6623;52.120;8.660;2023-04-06T10:35:45;8.03;;;5.73;;
13114;SDS011;6623;52.120;8.660;2023-04-06T10:38:11;7.87;;;5.63;;
13114;SDS011;6623;52.120;8.660;2023-04-06T10:40:39;10.33;;;6.43;;
13114;SDS011;6623;52.120;8.660;2023-04-06T10:43:21;9.73;;;6.30;;
13114;SDS011;6623;52.120;8.660;2023-04-06T10:45:54;7.90;;;5.70;;
13114;SDS011;6623;52.120;8.660;2023-04-06T10:48:21;8.03;;;6.10;;
13114;SDS011;6623;52.120;8.660;2023-04-06T10:50:47;8.47;;;6.40;;
13114;SDS011;6623;52.120;8.660;2023-04-06T10:53:22;7.77;;;5.93;;
13114;SDS011;6623;52.120;8.660;2023-04-06T10:55:48;8.73;;;6.30;;
13114;SDS011;6623;52.120;8.660;2023-04-06T10:58:20;9.10;;;7.03;;
13114;SDS011;6623;52.120;8.660;2023-04-06T11:00:49;7.97;;;6.17;;
13114;SDS011;6623;52.120;8.660;2023-04-06T11:03:15;8.03;;;6.03;;
13114;SDS011;6623;52.120;8.660;2023-04-06T11:05:48;10.57;;;6.60;;
13114;SDS011;6623;52.120;8.660;2023-04-06T11:08:26;8.47;;;6.30;;
13114;SDS011;6623;52.120;8.660;2023-04-06T11:13:52;10.43;;;5.83;;
13114;SDS011;6623;52.120;8.660;2023-04-06T11:16:23;9.20;;;5.90;;
13114;SDS011;6623;52.120;8.660;2023-04-06T11:24:04;10.57;;;6.00;;
13114;SDS011;6623;52.120;8.660;2023-04-06T11:26:49;7.43;;;6.17;;
13114;SDS011;6623;52.120;8.660;2023-04-06T11:29:27;7.50;;;5.80;;
13114;SDS011;6623;52.120;8.660;2023-04-06T11:32:00;9.40;;;6.80;;
13114;SDS011;6623;52.120;8.660;2023-04-06T11:34:28;7.30;;;5.93;;
13114;SDS011;6623;52.120;8.660;2023-04-06T11:36:56;9.17;;;6.30;;
13114;SDS011;6623;52.120;8.660;2023-04-06T11:39:23;9.87;;;6.33;;
13114;SDS011;6623;52.120;8.660;2023-04-06T11:41:51;8.50;;;5.90;;
13114;SDS011;6623;52.120;8.660;2023-04-06T11:44:28;8.93;;;6.53;;
13114;SDS011;6623;52.120;8.660;2023-04-06T11:46:56;7.90;;;6.13;;
13114;SDS011;6623;52.120;8.660;2023-04-06T11:49:26;9.87;;;6.77;;
13114;SDS011;6623;52.120;8.660;2023-04-06T11:51:55;8.47;;;6.20;;
13114;SDS011;6623;52.120;8.660;2023-04-06T11:54:35;9.20;;;7.20;;
13114;SDS011;6623;52.120;8.660;2023-04-06T11:57:02;10.13;;;6.73;;
13114;SDS011;6623;52.120;8.660;2023-04-06T11:59:29;8.27;;;6.30;;
13114;SDS011;6623;52.120;8.660;2023-04-06T12:01:55;9.10;;;6.20;;
13114;SDS011;6623;52.120;8.660;2023-04-06T12:04:22;8.63;;;6.10;;
13114;SDS011;6623;52.120;8.660;2023-04-06T12:06:47;8.87;;;6.53;;
13114;SDS011;6623;52.120;8.660;2023-04-06T12:09:13;8.80;;;7.03;;
13114;SDS011;6623;52.120;8.660;2023-04-06T12:11:39;11.70;;;7.17;;
13114;SDS011;6623;52.120;8.660;2023-04-06T12:14:05;10.43;;;6.83;;
13114;SDS011;6623;52.120;8.660;2023-04-06T12:16:32;11.57;;;7.23;;
13114;SDS011;6623;52.120;8.660;2023-04-06T12:18:58;9.17;;;6.83;;
13114;SDS011;6623;52.120;8.660;2023-04-06T12:21:24;10.40;;;6.67;;
13114;SDS011;6623;52.120;8.660;2023-04-06T12:23:51;9.70;;;6.87;;
13114;SDS011;6623;52.120;8.660;2023-04-06T12:26:17;10.67;;;6.30;;
13114;SDS011;6623;52.120;8.660;2023-04-06T12:28:42;8.20;;;6.17;;
13114;SDS011;6623;52.120;8.660;2023-04-06T12:31:14;9.80;;;6.73;;
13114;SDS011;6623;52.120;8.660;2023-04-06T12:33:40;9.73;;;6.87;;
13114;SDS011;6623;52.120;8.660;2023-04-06T12:36:11;11.80;;;6.60;;
13114;SDS011;6623;52.120;8.660;2023-04-06T12:38:40;8.27;;;6.10;;
13114;SDS011;6623;52.120;8.660;2023-04-06T12:41:07;9.90;;;6.07;;
13114;SDS011;6623;52.120;8.660;2023-04-06T12:43:32;10.03;;;6.17;;
13114;SDS011;6623;52.120;8.660;2023-04-06T12:45:58;12.03;;;6.13;;
13114;SDS011;6623;52.120;8.660;2023-04-06T12:48:24;8.53;;;6.27;;
13114;SDS011;6623;52.120;8.660;2023-04-06T12:50:54;11.33;;;6.67;;
13114;SDS011;6623;52.120;8.660;2023-04-06T12:53:21;10.00;;;6.73;;
13114;SDS011;6623;52.120;8.660;2023-04-06T12:55:46;11.43;;;6.37;;
13114;SDS011;6623;52.120;8.660;2023-04-06T12:58:12;9.57;;;6.33;;
13114;SDS011;6623;52.120;8.660;2023-04-06T13:00:37;9.60;;;5.87;;
13114;SDS011;6623;52.120;8.660;2023-04-06T13:03:03;7.20;;;5.73;;
13114;SDS011;6623;52.120;8.660;2023-04-06T13:05:28;11.07;;;6.30;;
13114;SDS011;6623;52.120;8.660;2023-04-06T13:07:54;9.67;;;5.63;;
13114;SDS011;6623;52.120;8.660;2023-04-06T13:10:19;6.90;;;5.10;;
13114;SDS011;6623;52.120;8.660;2023-04-06T13:12:45;9.00;;;5.80;;
13114;SDS011;6623;52.120;8.660;2023-04-06T13:15:11;7.93;;;5.70;;
13114;SDS011;6623;52.120;8.660;2023-04-06T13:17:36;8.33;;;5.73;;
13114;SDS011;6623;52.120;8.660;2023-04-06T13:20:02;8.03;;;5.47;;
13114;SDS011;6623;52.120;8.660;2023-04-06T13:22:28;8.37;;;6.00;;
13114;SDS011;6623;52.120;8.660;2023-04-06T13:24:54;8.03;;;5.93;;
13114;SDS011;6623;52.120;8.660;2023-04-06T13:27:19;8.50;;;5.90;;
13114;SDS011;6623;52.120;8.660;2023-04-06T13:29:45;8.30;;;5.87;;
13114;SDS011;6623;52.120;8.660;2023-04-06T13:32:11;8.93;;;5.83;;
13114;SDS011;6623;52.120;8.660;2023-04-06T13:34:36;7.53;;;5.30;;
13114;SDS011;6623;52.120;8.660;2023-04-06T13:37:02;7.37;;;4.73;;
13114;SDS011;6623;52.120;8.660;2023-04-06T13:39:28;7.67;;;5.37;;
13114;SDS011;6623;52.120;8.660;2023-04-06T13:41:55;7.50;;;5.47;;
13114;SDS011;6623;52.120;8.660;2023-04-06T13:44:21;8.03;;;5.47;;
13114;SDS011;6623;52.120;8.660;2023-04-06T13:46:47;7.57;;;4.63;;
13114;SDS011;6623;52.120;8.660;2023-04-06T13:49:13;8.20;;;4.93;;
13114;SDS011;6623;52.120;8.660;2023-04-06T13:51:38;8.97;;;5.20;;
13114;SDS011;6623;52.120;8.660;2023-04-06T13:54:04;6.20;;;4.77;;
13114;SDS011;6623;52.120;8.660;2023-04-06T13:56:30;8.37;;;5.30;;
13114;SDS011;6623;52.120;8.660;2023-04-06T13:58:55;8.67;;;6.03;;
13114;SDS011;6623;52.120;8.660;2023-04-06T14:01:21;7.83;;;5.80;;
13114;SDS011;6623;52.120;8.660;2023-04-06T14:03:50;10.57;;;5.97;;
13114;SDS011;6623;52.120;8.660;2023-04-06T14:06:16;10.27;;;5.70;;
13114;SDS011;6623;52.120;8.660;2023-04-06T14:08:41;9.10;;;6.17;;
13114;SDS011;6623;52.120;8.660;2023-04-06T14:11:10;10.47;;;6.63;;
13114;SDS011;6623;52.120;8.660;2023-04-06T14:13:39;8.77;;;6.30;;
13114;SDS011;6623;52.120;8.660;2023-04-06T14:16:05;9.43;;;6.60;;
13114;SDS011;6623;52.120;8.660;2023-04-06T14:18:32;8.93;;;6.20;;
13114;SDS011;6623;52.120;8.660;2023-04-06T14:20:59;8.57;;;6.07;;
13114;SDS011;6623;52.120;8.660;2023-04-06T14:23:25;8.20;;;5.90;;
13114;SDS011;6623;52.120;8.660;2023-04-06T14:26:27;8.27;;;5.93;;
13114;SDS011;6623;52.120;8.660;2023-04-06T14:28:45;6.53;;;5.47;;
13114;SDS011;6623;52.120;8.660;2023-04-06T14:31:13;8.30;;;5.87;;
13114;SDS011;6623;52.120;8.660;2023-04-06T14:33:40;8.33;;;6.00;;
13114;SDS011;6623;52.120;8.660;2023-04-06T14:36:06;8.50;;;6.20;;
13114;SDS011;6623;52.120;8.660;2023-04-06T14:38:32;8.80;;;6.10;;
13114;SDS011;6623;52.120;8.660;2023-04-06T14:40:58;9.27;;;6.50;;
13114;SDS011;6623;52.120;8.660;2023-04-06T14:43:24;9.03;;;6.70;;
13114;SDS011;6623;52.120;8.660;2023-04-06T14:45:50;9.67;;;6.47;;
13114;SDS011;6623;52.120;8.660;2023-04-06T14:48:16;9.27;;;6.87;;
13114;SDS011;6623;52.120;8.660;2023-04-06T14:50:51;8.50;;;6.53;;
13114;SDS011;6623;52.120;8.660;2023-04-06T14:53:18;9.37;;;6.70;;
13114;SDS011;6623;52.120;8.660;2023-04-06T14:55:44;9.80;;;7.13;;
13114;SDS011;6623;52.120;8.660;2023-04-06T14:58:10;10.63;;;7.23;;
13114;SDS011;6623;52.120;8.660;2023-04-06T15:00:36;12.47;;;7.43;;
13114;SDS011;6623;52.120;8.660;2023-04-06T15:03:03;9.70;;;7.13;;
13114;SDS011;6623;52.120;8.660;2023-04-06T15:05:29;11.63;;;8.10;;
13114;SDS011;6623;52.120;8.660;2023-04-06T15:07:55;10.90;;;7.90;;
13114;SDS011;6623;52.120;8.660;2023-04-06T15:10:21;10.03;;;7.47;;
13114;SDS011;6623;52.120;8.660;2023-04-06T15:12:46;12.17;;;8.13;;